createdAt,value
2022-09-17T00:00:21.932Z,12.00
2022-09-17T00:07:04.472Z,12.10
2022-09-17T00:13:47.686Z,12.10
2022-09-17T00:20:30.062Z,12.20
2022-09-17T00:27:12.391Z,12.10
2022-09-17T00:33:55.091Z,12.10
2022-09-17T00:40:37.931Z,12.20
2022-09-17T00:47:36.492Z,12.20
2022-09-17T00:54:19.567Z,12.20
2022-09-17T01:01:02.216Z,12.20
2022-09-17T01:07:49.349Z,12.10
2022-09-17T01:14:49.312Z,12.00
2022-09-17T01:21:40.980Z,11.80
2022-09-17T01:28:47.450Z,11.60
2022-09-17T01:35:52.212Z,11.50
2022-09-17T01:43:05.150Z,11.50
2022-09-17T01:49:50.538Z,11.60
2022-09-17T01:57:01.965Z,11.70
2022-09-17T02:03:53.846Z,11.80
2022-09-17T02:10:49.577Z,11.80
2022-09-17T02:17:54.480Z,11.70
2022-09-17T02:25:04.267Z,11.70
2022-09-17T02:31:47.279Z,11.50
2022-09-17T02:38:31.162Z,11.50
2022-09-17T02:45:46.115Z,11.40
2022-09-17T02:52:51.993Z,11.30
2022-09-17T02:59:58.779Z,11.40
2022-09-17T03:06:42.714Z,11.60
2022-09-17T03:13:25.071Z,11.50
2022-09-17T03:20:08.553Z,11.50
2022-09-17T03:26:50.866Z,11.50
2022-09-17T03:33:33.316Z,11.30
2022-09-17T03:40:15.811Z,11.10
2022-09-17T03:46:58.183Z,11.20
2022-09-17T03:53:40.538Z,11.20
2022-09-17T04:00:23.028Z,11.10
2022-09-17T04:07:05.687Z,11.00
2022-09-17T04:13:48.115Z,10.90
2022-09-17T04:20:31.016Z,10.90
2022-09-17T04:27:13.355Z,10.90
2022-09-17T04:33:56.197Z,10.80
2022-09-17T04:40:41.469Z,10.90
2022-09-17T04:47:24.681Z,11.00
2022-09-17T04:54:07.033Z,11.10
2022-09-17T05:00:49.396Z,11.20
2022-09-17T05:07:31.725Z,11.10
2022-09-17T05:14:14.073Z,11.40
2022-09-17T05:20:56.427Z,11.30
2022-09-17T05:27:39.624Z,11.10
2022-09-17T05:34:21.923Z,11.10
2022-09-17T05:41:06.525Z,11.30
2022-09-17T05:47:48.839Z,11.50
2022-09-17T05:54:31.142Z,11.60
2022-09-17T06:01:16.095Z,11.90
2022-09-17T06:07:58.398Z,12.30
2022-09-17T06:14:40.815Z,12.80
2022-09-17T06:21:23.542Z,12.90
2022-09-17T06:28:05.861Z,12.50
2022-09-17T06:34:48.711Z,12.50
2022-09-17T06:41:31.182Z,12.30
2022-09-17T06:48:13.558Z,12.30
2022-09-17T06:54:56.378Z,12.40
2022-09-17T07:01:38.800Z,12.30
2022-09-17T07:08:21.258Z,12.10
2022-09-17T07:15:04.441Z,12.60
2022-09-17T07:21:49.026Z,12.00
2022-09-17T07:28:31.701Z,11.80
2022-09-17T07:35:14.180Z,12.70
2022-09-17T07:41:56.474Z,11.90
2022-09-17T07:48:38.896Z,11.80
2022-09-17T07:55:21.249Z,11.90
2022-09-17T08:02:03.637Z,11.80
2022-09-17T08:08:46.642Z,11.80
2022-09-17T08:15:29.062Z,12.50
2022-09-17T08:22:11.402Z,12.70
2022-09-17T08:28:56.337Z,12.80
2022-09-17T08:35:38.655Z,12.90
2022-09-17T08:42:46.564Z,13.30
2022-09-17T08:49:41.468Z,13.40
2022-09-17T08:56:26.693Z,14.20
2022-09-17T09:03:32.114Z,15.20
2022-09-17T09:10:19.939Z,15.30
2022-09-17T09:17:07.750Z,14.60
2022-09-17T09:24:16.448Z,14.40
2022-09-17T09:31:20.430Z,14.40
2022-09-17T09:38:21.399Z,14.20
2022-09-17T09:45:15.291Z,14.50
2022-09-17T09:52:11.938Z,15.70
2022-09-17T09:58:54.427Z,15.40
2022-09-17T10:05:37.547Z,14.50
2022-09-17T10:12:21.549Z,14.60
2022-09-17T10:19:03.835Z,14.70
2022-09-17T10:25:47.572Z,14.40
2022-09-17T10:32:30.012Z,14.60
2022-09-17T10:39:19.728Z,15.40
2022-09-17T10:46:03.389Z,16.40
2022-09-17T10:52:52.816Z,17.10
2022-09-17T10:59:44.371Z,17.20
2022-09-17T11:07:00.822Z,17.60
2022-09-17T11:14:10.868Z,17.80
2022-09-17T11:21:16.296Z,17.40
2022-09-17T11:28:27.718Z,17.00
2022-09-17T11:35:20.482Z,17.10
2022-09-17T11:42:12.273Z,17.50
2022-09-17T11:49:18.519Z,17.50
2022-09-17T11:56:23.438Z,17.50
2022-09-17T12:03:16.143Z,17.90
2022-09-17T12:10:19.227Z,17.60
2022-09-17T12:17:03.363Z,16.60
2022-09-17T12:23:55.952Z,16.10
2022-09-17T12:30:54.338Z,16.40
2022-09-17T12:37:53.065Z,16.20
2022-09-17T12:45:00.689Z,16.20
2022-09-17T12:51:52.245Z,16.60
2022-09-17T12:58:50.611Z,16.20
2022-09-17T13:05:43.111Z,16.20
2022-09-17T13:12:48.694Z,16.20
2022-09-17T13:19:41.902Z,16.10
2022-09-17T13:26:36.192Z,15.40
2022-09-17T13:33:53.371Z,15.20
2022-09-17T13:40:37.005Z,15.10
2022-09-17T13:47:30.229Z,15.30
2022-09-17T13:54:14.954Z,15.20
2022-09-17T14:01:06.293Z,15.30
2022-09-17T14:07:51.039Z,15.10
2022-09-17T14:14:50.678Z,15.30
2022-09-17T14:21:34.472Z,15.60
2022-09-17T14:28:43.977Z,15.70
2022-09-17T14:35:43.912Z,15.60
2022-09-17T14:42:35.398Z,15.80
2022-09-17T14:49:33.769Z,16.20
2022-09-17T14:56:23.163Z,16.20
2022-09-17T15:03:06.154Z,16.80
2022-09-17T15:09:50.222Z,16.60
2022-09-17T15:16:34.701Z,16.70
2022-09-17T15:23:25.714Z,16.50
2022-09-17T15:30:20.087Z,16.10
2022-09-17T15:37:20.573Z,15.70
2022-09-17T15:44:35.537Z,15.50
2022-09-17T15:51:31.306Z,15.70
2022-09-17T15:58:27.454Z,15.50
2022-09-17T16:05:16.789Z,15.70
2022-09-17T16:11:59.090Z,15.40
2022-09-17T16:18:41.515Z,15.00
2022-09-17T16:25:26.812Z,14.90
2022-09-17T16:32:11.131Z,14.90
2022-09-17T16:38:55.147Z,15.30
2022-09-17T16:45:37.455Z,15.30
2022-09-17T16:52:20.123Z,15.10
2022-09-17T16:59:02.530Z,15.10
2022-09-17T17:05:45.020Z,15.00
2022-09-17T17:12:27.523Z,14.90
2022-09-17T17:19:10.635Z,14.90
2022-09-17T17:25:53.005Z,14.20
2022-09-17T17:32:36.898Z,13.30
2022-09-17T17:39:19.194Z,12.20
2022-09-17T17:46:02.141Z,11.70
2022-09-17T17:52:47.929Z,11.80
2022-09-17T17:59:31.230Z,11.90
2022-09-17T18:06:13.715Z,12.20
2022-09-17T18:12:56.079Z,12.30
2022-09-17T18:19:38.385Z,12.50
2022-09-17T18:26:26.074Z,12.50
2022-09-17T18:33:08.391Z,12.50
2022-09-17T18:39:58.448Z,12.60
2022-09-17T18:46:42.536Z,12.60
2022-09-17T18:53:27.043Z,12.60
2022-09-17T19:00:12.657Z,12.50
2022-09-17T19:06:55.513Z,12.50
2022-09-17T19:13:46.725Z,12.40
2022-09-17T19:20:29.676Z,12.30
2022-09-17T19:27:12.060Z,12.10
2022-09-17T19:33:54.811Z,12.00
2022-09-17T19:40:37.189Z,11.60
2022-09-17T19:47:19.707Z,11.50
2022-09-17T19:54:01.990Z,11.40
2022-09-17T20:00:44.410Z,11.40
2022-09-17T20:07:29.087Z,11.40
2022-09-17T20:14:12.271Z,11.40
2022-09-17T20:20:54.764Z,11.50
2022-09-17T20:27:37.160Z,11.50
2022-09-17T20:34:19.524Z,11.60
2022-09-17T20:41:05.651Z,11.70
2022-09-17T20:47:50.143Z,11.70
2022-09-17T20:54:32.538Z,11.50
2022-09-17T21:01:18.674Z,11.40
2022-09-17T21:08:01.193Z,10.90
2022-09-17T21:14:43.522Z,10.90
2022-09-17T21:21:26.758Z,10.90
2022-09-17T21:28:09.063Z,11.00
2022-09-17T21:34:51.376Z,11.10
2022-09-17T21:41:37.591Z,11.30
2022-09-17T21:48:22.373Z,11.40
2022-09-17T21:55:05.104Z,11.40
2022-09-17T22:01:49.852Z,11.40
2022-09-17T22:08:33.467Z,11.50
2022-09-17T22:15:15.904Z,11.40
2022-09-17T22:21:58.313Z,11.50
2022-09-17T22:28:40.650Z,11.40
2022-09-17T22:35:23.005Z,11.70
2022-09-17T22:42:05.507Z,11.20
2022-09-17T22:48:48.556Z,11.20
2022-09-17T22:55:31.289Z,11.20
2022-09-17T23:02:13.690Z,11.20
2022-09-17T23:08:56.163Z,11.30
2022-09-17T23:15:38.893Z,11.30
2022-09-17T23:22:23.019Z,11.30
2022-09-17T23:29:05.877Z,11.40
2022-09-17T23:35:48.399Z,11.50
2022-09-17T23:42:36.024Z,11.40
2022-09-17T23:49:18.399Z,11.50
2022-09-17T23:56:02.278Z,11.50
